createdAt,value
2018-11-13T00:00:21.392Z,83.37
2018-11-13T00:02:50.651Z,80.87
2018-11-13T00:05:19.274Z,89.17
2018-11-13T00:07:47.896Z,95.30
2018-11-13T00:10:16.994Z,74.20
2018-11-13T00:12:45.690Z,84.23
2018-11-13T00:15:14.399Z,87.50
2018-11-13T00:17:43.027Z,81.50
2018-11-13T00:20:14.290Z,76.53
2018-11-13T00:22:43.523Z,77.37
2018-11-13T00:25:13.437Z,69.17
2018-11-13T00:27:42.739Z,82.60
2018-11-13T00:30:13.852Z,64.10
2018-11-13T00:32:42.740Z,72.67
2018-11-13T00:35:11.955Z,92.83
2018-11-13T00:37:40.527Z,72.20
2018-11-13T00:40:10.129Z,70.17
2018-11-13T00:42:38.812Z,72.77
2018-11-13T00:45:07.728Z,75.70
2018-11-13T00:47:36.347Z,74.03
2018-11-13T00:50:05.234Z,69.13
2018-11-13T00:52:33.975Z,79.77
2018-11-13T00:55:02.972Z,70.37
2018-11-13T00:57:31.192Z,74.83
2018-11-13T00:59:59.831Z,52.77
2018-11-13T01:02:28.410Z,64.27
2018-11-13T01:04:57.017Z,63.47
2018-11-13T01:07:25.522Z,60.33
2018-11-13T01:09:54.103Z,67.60
2018-11-13T01:12:22.647Z,72.40
2018-11-13T01:14:51.563Z,62.80
2018-11-13T01:17:20.305Z,70.83
2018-11-13T01:19:48.836Z,71.33
2018-11-13T01:22:17.485Z,68.57
2018-11-13T01:24:45.993Z,60.27
2018-11-13T01:27:14.589Z,60.43
2018-11-13T01:29:48.487Z,56.03
2018-11-13T01:32:17.014Z,55.57
2018-11-13T01:34:45.711Z,64.30
2018-11-13T01:37:14.252Z,71.30
2018-11-13T01:39:42.823Z,64.00
2018-11-13T01:42:11.383Z,73.83
2018-11-13T01:44:39.964Z,61.57
2018-11-13T01:47:08.688Z,61.13
2018-11-13T01:49:37.559Z,69.17
2018-11-13T01:52:06.475Z,65.47
2018-11-13T01:54:35.233Z,61.93
2018-11-13T01:57:04.234Z,70.93
2018-11-13T01:59:33.060Z,61.47
2018-11-13T02:02:01.645Z,58.60
2018-11-13T02:04:30.366Z,68.63
2018-11-13T02:06:58.940Z,67.07
2018-11-13T02:09:27.480Z,60.73
2018-11-13T02:11:56.023Z,68.50
2018-11-13T02:14:24.578Z,66.30
2018-11-13T02:16:53.260Z,65.43
2018-11-13T02:19:21.836Z,57.50
2018-11-13T02:21:50.362Z,64.60
2018-11-13T02:24:19.090Z,55.50
2018-11-13T02:26:48.029Z,77.40
2018-11-13T02:29:16.687Z,60.80
2018-11-13T02:31:45.358Z,60.87
2018-11-13T02:34:13.979Z,67.00
2018-11-13T02:36:42.538Z,66.83
2018-11-13T02:39:11.473Z,60.17
2018-11-13T02:41:40.739Z,66.90
2018-11-13T02:44:09.687Z,56.23
2018-11-13T02:46:38.699Z,55.33
2018-11-13T02:49:07.286Z,57.07
2018-11-13T02:51:36.278Z,55.50
2018-11-13T02:54:05.040Z,52.27
2018-11-13T02:56:34.463Z,55.70
2018-11-13T02:59:03.635Z,57.90
2018-11-13T03:01:32.196Z,48.60
2018-11-13T03:04:00.804Z,52.27
2018-11-13T03:06:29.410Z,53.73
2018-11-13T03:08:58.512Z,56.17
2018-11-13T03:11:27.147Z,53.93
2018-11-13T03:13:55.798Z,53.60
2018-11-13T03:16:24.278Z,52.50
2018-11-13T03:18:52.799Z,43.30
2018-11-13T03:21:21.374Z,46.90
2018-11-13T03:23:49.983Z,47.80
2018-11-13T03:26:18.664Z,52.83
2018-11-13T03:28:47.289Z,58.53
2018-11-13T03:31:15.839Z,43.50
2018-11-13T03:33:44.429Z,44.17
2018-11-13T03:36:13.020Z,49.07
2018-11-13T03:38:41.665Z,48.73
2018-11-13T03:41:10.276Z,44.60
2018-11-13T03:43:38.955Z,47.90
2018-11-13T03:46:07.484Z,51.57
2018-11-13T03:48:36.308Z,53.53
2018-11-13T03:51:05.227Z,44.33
2018-11-13T03:53:33.816Z,36.03
2018-11-13T03:56:02.760Z,42.20
2018-11-13T03:58:31.439Z,42.77
2018-11-13T04:01:00.016Z,37.23
2018-11-13T04:03:28.552Z,39.47
2018-11-13T04:05:57.062Z,37.90
2018-11-13T04:08:25.630Z,44.27
2018-11-13T04:10:54.188Z,48.80
2018-11-13T04:13:22.754Z,40.77
2018-11-13T04:15:51.337Z,36.27
2018-11-13T04:18:19.945Z,47.97
2018-11-13T04:20:48.563Z,46.90
2018-11-13T04:23:17.158Z,37.77
2018-11-13T04:25:45.741Z,41.20
2018-11-13T04:28:14.371Z,40.13
2018-11-13T04:30:42.958Z,44.87
2018-11-13T04:33:11.535Z,39.00
2018-11-13T04:35:40.138Z,42.77
2018-11-13T04:38:08.942Z,43.63
2018-11-13T04:40:37.512Z,44.00
2018-11-13T04:43:06.603Z,48.97
2018-11-13T04:45:35.213Z,46.23
2018-11-13T04:48:03.745Z,48.53
2018-11-13T04:50:32.287Z,35.67
2018-11-13T04:53:00.856Z,33.33
2018-11-13T04:55:29.402Z,41.00
2018-11-13T04:57:58.018Z,39.37
2018-11-13T05:00:26.675Z,36.77
2018-11-13T05:02:55.321Z,40.00
2018-11-13T05:05:23.834Z,40.27
2018-11-13T05:07:53.802Z,36.43
2018-11-13T05:10:22.859Z,37.57
2018-11-13T05:12:51.927Z,40.30
2018-11-13T05:15:20.541Z,34.73
2018-11-13T05:17:49.287Z,44.77
2018-11-13T05:20:18.435Z,36.27
2018-11-13T05:22:47.008Z,41.00
2018-11-13T05:25:18.150Z,39.03
2018-11-13T05:27:46.711Z,38.70
2018-11-13T05:30:19.438Z,43.77
2018-11-13T05:32:48.102Z,45.93
2018-11-13T05:35:17.955Z,41.23
2018-11-13T05:37:46.929Z,40.43
2018-11-13T05:40:20.109Z,45.33
2018-11-13T05:42:48.784Z,37.97
2018-11-13T05:45:18.771Z,40.27
2018-11-13T05:47:47.344Z,38.60
2018-11-13T05:50:16.752Z,44.10
2018-11-13T05:52:46.343Z,41.77
2018-11-13T05:55:15.484Z,42.07
2018-11-13T05:57:44.227Z,41.87
2018-11-13T06:00:18.647Z,42.20
2018-11-13T06:02:47.217Z,41.33
2018-11-13T06:05:15.761Z,45.40
2018-11-13T06:07:50.973Z,41.67
2018-11-13T06:10:19.765Z,40.80
2018-11-13T06:12:48.354Z,38.87
2018-11-13T06:15:16.909Z,45.07
2018-11-13T06:17:45.505Z,36.33
2018-11-13T06:20:15.161Z,43.13
2018-11-13T06:22:43.770Z,40.20
2018-11-13T06:25:14.030Z,41.23
2018-11-13T06:27:43.632Z,40.43
2018-11-13T06:30:15.636Z,46.27
2018-11-13T06:32:44.744Z,40.53
2018-11-13T06:35:13.353Z,36.07
2018-11-13T06:37:42.219Z,41.23
2018-11-13T06:40:11.196Z,48.67
2018-11-13T06:42:40.175Z,41.43
2018-11-13T06:45:10.839Z,39.10
2018-11-13T06:47:39.481Z,48.37
2018-11-13T06:50:08.838Z,47.93
2018-11-13T06:52:38.295Z,47.80
2018-11-13T06:55:12.834Z,48.13
2018-11-13T06:57:41.386Z,48.60
2018-11-13T07:00:10.730Z,41.27
2018-11-13T07:02:39.795Z,42.83
2018-11-13T07:05:12.103Z,46.60
2018-11-13T07:07:40.998Z,51.63
2018-11-13T07:10:11.362Z,50.33
2018-11-13T07:12:40.747Z,45.67
2018-11-13T07:15:10.417Z,49.90
2018-11-13T07:17:38.969Z,43.17
2018-11-13T07:20:08.030Z,50.57
2018-11-13T07:22:37.079Z,40.73
2018-11-13T07:25:05.909Z,41.13
2018-11-13T07:27:34.551Z,41.67
2018-11-13T07:30:03.086Z,42.43
2018-11-13T07:32:31.736Z,47.33
2018-11-13T07:35:00.258Z,39.57
2018-11-13T07:37:28.787Z,43.23
2018-11-13T07:39:57.346Z,46.53
2018-11-13T07:42:25.902Z,46.00
2018-11-13T07:44:54.491Z,42.30
2018-11-13T07:47:23.156Z,58.87
2018-11-13T07:49:51.915Z,43.53
2018-11-13T07:52:20.477Z,49.87
2018-11-13T07:54:49.059Z,44.30
2018-11-13T07:57:17.586Z,46.63
2018-11-13T07:59:46.250Z,41.93
2018-11-13T08:02:15.000Z,45.10
2018-11-13T08:04:43.532Z,41.00
2018-11-13T08:07:12.095Z,46.17
2018-11-13T08:09:40.815Z,42.27
2018-11-13T08:12:09.404Z,45.40
2018-11-13T08:14:37.969Z,52.40
2018-11-13T08:17:06.682Z,51.27
2018-11-13T08:19:35.358Z,39.67
2018-11-13T08:22:03.941Z,42.87
2018-11-13T08:24:32.479Z,39.53
2018-11-13T08:27:01.099Z,41.13
2018-11-13T08:29:29.628Z,35.70
2018-11-13T08:31:58.157Z,40.17
2018-11-13T08:34:26.693Z,38.90
2018-11-13T08:36:55.275Z,33.77
2018-11-13T08:39:23.787Z,39.23
2018-11-13T08:41:52.433Z,31.03
2018-11-13T08:44:21.699Z,39.90
2018-11-13T08:46:50.166Z,40.43
2018-11-13T08:49:18.736Z,31.40
2018-11-13T08:51:47.334Z,32.20
2018-11-13T08:54:15.902Z,39.00
2018-11-13T08:56:44.538Z,35.37
2018-11-13T08:59:13.316Z,35.03
2018-11-13T09:01:41.905Z,39.50
2018-11-13T09:04:10.611Z,27.93
2018-11-13T09:06:39.193Z,49.30
2018-11-13T09:09:10.270Z,33.03
2018-11-13T09:11:38.931Z,38.57
2018-11-13T09:14:07.419Z,43.50
2018-11-13T09:16:36.168Z,33.87
2018-11-13T09:19:04.795Z,38.70
2018-11-13T09:21:33.278Z,45.53
2018-11-13T09:24:02.820Z,40.20
2018-11-13T09:26:31.704Z,45.27
2018-11-13T09:29:00.361Z,49.90
2018-11-13T09:31:29.014Z,38.60
2018-11-13T09:33:57.530Z,40.40
2018-11-13T09:36:26.126Z,33.73
2018-11-13T09:38:54.670Z,36.90
2018-11-13T09:41:23.255Z,27.10
2018-11-13T09:43:51.847Z,36.40
2018-11-13T09:46:20.463Z,32.47
2018-11-13T09:48:48.976Z,30.33
2018-11-13T09:51:17.509Z,36.10
2018-11-13T09:53:46.150Z,29.53
2018-11-13T09:56:14.864Z,26.00
2018-11-13T09:58:43.405Z,25.77
2018-11-13T10:01:12.350Z,29.13
2018-11-13T10:03:41.253Z,34.13
2018-11-13T10:06:09.381Z,29.50
2018-11-13T10:08:38.201Z,28.37
2018-11-13T10:11:06.739Z,27.30
2018-11-13T10:13:35.324Z,27.83
2018-11-13T10:16:04.121Z,23.47
2018-11-13T10:18:33.040Z,24.30
2018-11-13T10:21:01.704Z,24.57
2018-11-13T10:23:30.280Z,23.93
2018-11-13T10:25:58.887Z,17.20
2018-11-13T10:28:27.383Z,20.87
2018-11-13T10:30:56.002Z,27.97
2018-11-13T10:33:24.528Z,23.60
2018-11-13T10:35:53.198Z,16.60
2018-11-13T10:38:21.744Z,19.37
2018-11-13T10:40:50.455Z,16.97
2018-11-13T10:43:19.077Z,15.60
2018-11-13T10:45:47.620Z,23.90
2018-11-13T10:48:16.773Z,20.53
2018-11-13T10:50:45.377Z,18.23
2018-11-13T10:53:14.016Z,27.40
2018-11-13T10:55:42.574Z,23.97
2018-11-13T10:58:11.128Z,16.43
2018-11-13T11:00:45.117Z,15.13
2018-11-13T11:03:19.074Z,10.73
2018-11-13T11:05:47.770Z,18.80
2018-11-13T11:08:16.347Z,12.77
2018-11-13T11:10:44.913Z,17.90
2018-11-13T11:13:13.616Z,12.53
2018-11-13T11:15:42.094Z,18.23
2018-11-13T11:18:10.691Z,10.73
2018-11-13T11:20:39.190Z,11.77
2018-11-13T11:23:07.734Z,20.63
2018-11-13T11:25:36.406Z,12.00
2018-11-13T11:28:05.051Z,9.20
2018-11-13T11:30:33.589Z,13.53
2018-11-13T11:33:02.405Z,8.53
2018-11-13T11:35:30.943Z,14.00
2018-11-13T11:37:59.466Z,10.50
2018-11-13T11:40:28.014Z,8.63
2018-11-13T11:42:56.822Z,21.07
2018-11-13T11:45:25.510Z,4.77
2018-11-13T11:47:54.036Z,8.60
2018-11-13T11:50:25.087Z,5.40
2018-11-13T11:52:53.586Z,8.53
2018-11-13T11:55:22.417Z,8.13
2018-11-13T11:57:57.399Z,3.77
2018-11-13T12:00:31.532Z,8.73
2018-11-13T12:03:00.534Z,7.37
2018-11-13T12:05:29.052Z,4.93
2018-11-13T12:07:57.626Z,9.33
2018-11-13T12:10:26.205Z,8.07
2018-11-13T12:12:54.738Z,4.87
2018-11-13T12:15:23.233Z,9.07
2018-11-13T12:17:51.850Z,3.10
2018-11-13T12:20:20.411Z,5.07
2018-11-13T12:22:49.006Z,10.67
2018-11-13T12:25:20.162Z,2.63
2018-11-13T12:27:47.548Z,3.57
2018-11-13T12:30:18.182Z,2.93
2018-11-13T12:32:47.461Z,5.47
2018-11-13T12:35:16.984Z,5.43
2018-11-13T12:37:45.528Z,6.20
2018-11-13T12:40:17.236Z,2.40
2018-11-13T12:42:46.730Z,6.63
2018-11-13T12:45:15.333Z,5.00
2018-11-13T12:47:44.394Z,4.10
2018-11-13T12:50:13.951Z,9.60
2018-11-13T12:52:42.541Z,11.73
2018-11-13T12:55:18.707Z,5.97
2018-11-13T12:57:47.361Z,16.93
2018-11-13T13:00:23.009Z,2.80
2018-11-13T13:02:51.763Z,7.37
2018-11-13T13:05:20.306Z,2.83
2018-11-13T13:07:48.836Z,4.30
2018-11-13T13:10:18.708Z,12.03
2018-11-13T13:12:47.264Z,7.10
2018-11-13T13:15:17.003Z,1.93
2018-11-13T13:17:45.957Z,4.43
2018-11-13T13:20:18.809Z,4.10
2018-11-13T13:22:48.544Z,3.17
2018-11-13T13:25:17.988Z,8.60
2018-11-13T13:27:46.544Z,4.53
2018-11-13T13:30:19.145Z,4.40
2018-11-13T13:32:48.319Z,4.47
2018-11-13T13:35:39.222Z,4.83
2018-11-13T13:38:08.724Z,3.70
2018-11-13T13:40:38.291Z,12.50
2018-11-13T13:43:07.552Z,5.03
2018-11-13T13:45:36.134Z,4.87
2018-11-13T13:48:04.685Z,6.50
2018-11-13T13:50:33.265Z,10.93
2018-11-13T13:53:02.486Z,12.27
2018-11-13T13:55:31.004Z,3.53
2018-11-13T13:57:59.537Z,10.90
2018-11-13T14:00:28.315Z,2.40
2018-11-13T14:02:56.697Z,1.40
2018-11-13T14:05:25.318Z,4.83
2018-11-13T14:07:53.879Z,8.60
2018-11-13T14:10:22.404Z,9.20
2018-11-13T14:12:50.939Z,13.80
2018-11-13T14:15:19.595Z,2.43
2018-11-13T14:17:48.119Z,6.33
2018-11-13T14:20:18.321Z,4.67
2018-11-13T14:22:46.925Z,5.53
2018-11-13T14:25:15.750Z,6.33
2018-11-13T14:27:44.670Z,7.13
2018-11-13T14:30:31.746Z,5.23
2018-11-13T14:33:01.748Z,7.43
2018-11-13T14:35:30.404Z,6.77
2018-11-13T14:37:59.075Z,6.63
2018-11-13T14:40:30.714Z,4.53
2018-11-13T14:42:59.626Z,6.53
2018-11-13T14:45:28.594Z,4.50
2018-11-13T14:47:57.225Z,7.03
2018-11-13T14:50:27.053Z,7.07
2018-11-13T14:52:56.037Z,8.33
2018-11-13T14:55:27.613Z,9.67
2018-11-13T14:57:56.691Z,9.20
2018-11-13T15:00:29.314Z,3.43
2018-11-13T15:02:58.925Z,4.13
2018-11-13T15:05:28.146Z,12.83
2018-11-13T15:07:59.139Z,8.50
2018-11-13T15:10:44.490Z,8.93
2018-11-13T15:13:13.470Z,6.50
2018-11-13T15:15:42.032Z,9.90
2018-11-13T15:18:10.917Z,7.80
2018-11-13T15:20:39.602Z,9.97
2018-11-13T15:23:09.258Z,5.40
2018-11-13T15:25:37.918Z,10.73
2018-11-13T15:28:07.408Z,14.90
2018-11-13T15:30:37.307Z,3.63
2018-11-13T15:33:12.531Z,6.70
2018-11-13T15:35:41.074Z,8.47
2018-11-13T15:38:09.837Z,3.90
2018-11-13T15:40:38.393Z,4.50
2018-11-13T15:43:07.614Z,15.40
2018-11-13T15:45:36.184Z,5.03
2018-11-13T15:48:06.091Z,5.07
2018-11-13T15:50:35.321Z,7.23
2018-11-13T15:53:04.114Z,15.37
2018-11-13T15:55:32.811Z,15.53
2018-11-13T15:58:01.580Z,8.53
2018-11-13T16:00:31.685Z,15.40
2018-11-13T16:03:01.676Z,12.33
2018-11-13T16:05:33.617Z,13.97
2018-11-13T16:08:03.178Z,7.07
2018-11-13T16:10:31.736Z,8.93
2018-11-13T16:13:00.669Z,9.07
2018-11-13T16:15:29.783Z,7.20
2018-11-13T16:17:59.704Z,12.43
2018-11-13T16:20:28.259Z,8.13
2018-11-13T16:22:56.822Z,7.87
2018-11-13T16:25:25.749Z,6.37
2018-11-13T16:27:54.329Z,12.47
2018-11-13T16:30:25.277Z,10.07
2018-11-13T16:32:54.134Z,4.33
2018-11-13T16:35:23.699Z,7.60
2018-11-13T16:37:52.882Z,8.97
2018-11-13T16:40:25.907Z,13.43
2018-11-13T16:42:54.494Z,5.23
2018-11-13T16:45:23.907Z,17.50
2018-11-13T16:47:52.974Z,11.07
2018-11-13T16:50:22.890Z,4.50
2018-11-13T16:52:51.441Z,9.20
2018-11-13T16:55:25.211Z,6.60
2018-11-13T16:57:54.385Z,7.10
2018-11-13T17:00:23.474Z,8.27
2018-11-13T17:02:52.018Z,8.83
2018-11-13T17:05:21.423Z,11.93
2018-11-13T17:07:50.313Z,20.67
2018-11-13T17:10:22.305Z,9.47
2018-11-13T17:12:51.551Z,8.00
2018-11-13T17:15:26.384Z,11.90
2018-11-13T17:17:56.049Z,11.40
2018-11-13T17:20:24.669Z,11.70
2018-11-13T17:22:53.487Z,18.27
2018-11-13T17:25:24.253Z,14.83
2018-11-13T17:27:53.767Z,10.23
2018-11-13T17:30:26.715Z,12.53
2018-11-13T17:32:59.014Z,12.10
2018-11-13T17:35:28.214Z,13.93
2018-11-13T17:37:57.520Z,9.13
2018-11-13T17:40:28.439Z,12.17
2018-11-13T17:42:58.335Z,21.27
2018-11-13T17:45:28.530Z,6.90
2018-11-13T17:47:57.170Z,10.27
2018-11-13T17:50:27.337Z,15.43
2018-11-13T17:52:55.960Z,4.70
2018-11-13T17:55:24.751Z,9.87
2018-11-13T17:57:54.699Z,9.37
2018-11-13T18:00:31.799Z,8.27
2018-11-13T18:03:01.541Z,7.93
2018-11-13T18:05:30.551Z,18.00
2018-11-13T18:08:00.186Z,13.77
2018-11-13T18:10:29.475Z,15.73
2018-11-13T18:12:58.044Z,8.83
2018-11-13T18:15:27.720Z,12.73
2018-11-13T18:17:56.337Z,5.60
2018-11-13T18:20:26.344Z,14.97
2018-11-13T18:22:54.891Z,19.60
2018-11-13T18:25:23.446Z,18.50
2018-11-13T18:27:53.514Z,6.33
2018-11-13T18:30:23.480Z,8.10
2018-11-13T18:32:52.192Z,16.07
2018-11-13T18:35:23.694Z,11.23
2018-11-13T18:37:53.125Z,16.30
2018-11-13T18:40:22.310Z,14.20
2018-11-13T18:42:52.028Z,9.13
2018-11-13T18:45:24.396Z,7.90
2018-11-13T18:47:52.996Z,11.13
2018-11-13T18:50:23.951Z,22.00
2018-11-13T18:52:52.468Z,11.40
2018-11-13T18:55:21.099Z,8.77
2018-11-13T18:57:49.901Z,15.53
2018-11-13T19:00:22.227Z,13.50
2018-11-13T19:02:51.278Z,24.20
2018-11-13T19:05:20.354Z,13.50
2018-11-13T19:07:49.004Z,11.77
2018-11-13T19:10:52.459Z,17.33
2018-11-13T19:13:23.867Z,9.53
2018-11-13T19:15:56.046Z,16.10
2018-11-13T19:18:24.695Z,10.33
2018-11-13T19:20:53.227Z,6.03
2018-11-13T19:23:22.231Z,8.67
2018-11-13T19:25:51.287Z,19.80
2018-11-13T19:28:19.889Z,13.13
2018-11-13T19:30:48.805Z,6.70
2018-11-13T19:33:17.359Z,7.23
2018-11-13T19:35:46.085Z,10.37
2018-11-13T19:38:14.814Z,11.20
2018-11-13T19:40:43.397Z,14.83
2018-11-13T19:43:13.195Z,36.07
2018-11-13T19:45:41.748Z,24.57
2018-11-13T19:48:10.343Z,17.10
2018-11-13T19:50:39.136Z,14.73
2018-11-13T19:53:07.901Z,14.47
2018-11-13T19:55:36.917Z,13.40
2018-11-13T19:58:05.627Z,13.77
2018-11-13T20:00:36.497Z,17.50
2018-11-13T20:03:06.768Z,11.63
2018-11-13T20:05:35.749Z,15.50
2018-11-13T20:08:04.768Z,22.63
2018-11-13T20:10:34.634Z,27.67
2018-11-13T20:13:05.320Z,28.37
2018-11-13T20:15:34.847Z,20.77
2018-11-13T20:18:03.798Z,9.40
2018-11-13T20:20:33.608Z,24.90
2018-11-13T20:23:03.737Z,21.40
2018-11-13T20:25:33.559Z,17.00
2018-11-13T20:28:03.605Z,19.40
2018-11-13T20:30:37.807Z,14.63
2018-11-13T20:33:07.209Z,14.13
2018-11-13T20:35:36.021Z,25.10
2018-11-13T20:38:05.036Z,13.77
2018-11-13T20:40:34.957Z,18.27
2018-11-13T20:43:04.981Z,8.77
2018-11-13T20:45:33.545Z,17.13
2018-11-13T20:48:02.099Z,22.50
2018-11-13T20:50:32.034Z,11.00
2018-11-13T20:53:00.832Z,13.73
2018-11-13T20:55:29.722Z,16.77
2018-11-13T20:57:58.497Z,21.43
2018-11-13T21:00:32.148Z,27.30
2018-11-13T21:03:00.773Z,20.73
2018-11-13T21:05:29.387Z,19.80
2018-11-13T21:07:57.956Z,27.93
2018-11-13T21:10:34.243Z,17.17
2018-11-13T21:13:03.199Z,15.47
2018-11-13T21:15:31.947Z,14.43
2018-11-13T21:18:00.466Z,17.37
2018-11-13T21:20:29.080Z,11.23
2018-11-13T21:22:57.626Z,23.47
2018-11-13T21:25:27.030Z,32.37
2018-11-13T21:27:57.230Z,22.43
2018-11-13T21:30:25.915Z,18.63
2018-11-13T21:32:54.730Z,18.83
2018-11-13T21:35:23.519Z,19.83
2018-11-13T21:37:53.362Z,24.17
2018-11-13T21:40:23.175Z,15.53
2018-11-13T21:42:52.422Z,23.77
2018-11-13T21:45:21.987Z,20.93
2018-11-13T21:47:50.605Z,19.87
2018-11-13T21:50:20.327Z,15.57
2018-11-13T21:52:48.826Z,20.80
2018-11-13T21:55:19.171Z,24.03
2018-11-13T21:57:47.787Z,20.57
2018-11-13T22:00:22.331Z,22.87
2018-11-13T22:02:53.861Z,22.07
2018-11-13T22:05:23.234Z,24.60
2018-11-13T22:07:51.799Z,19.90
2018-11-13T22:10:20.618Z,27.73
2018-11-13T22:12:49.151Z,25.13
2018-11-13T22:15:19.198Z,11.10
2018-11-13T22:17:47.773Z,19.20
2018-11-13T22:20:17.497Z,22.23
2018-11-13T22:22:46.257Z,17.70
2018-11-13T22:25:17.290Z,22.93
2018-11-13T22:27:47.366Z,25.30
2018-11-13T22:30:16.695Z,21.80
2018-11-13T22:32:45.777Z,17.80
2018-11-13T22:35:14.923Z,21.83
2018-11-13T22:37:43.460Z,21.37
2018-11-13T22:40:15.181Z,26.77
2018-11-13T22:42:43.806Z,20.90
2018-11-13T22:45:14.562Z,21.70
2018-11-13T22:47:43.399Z,32.63
2018-11-13T22:50:29.069Z,29.80
2018-11-13T22:52:57.842Z,18.93
2018-11-13T22:55:26.466Z,17.63
2018-11-13T22:57:56.141Z,25.20
2018-11-13T23:00:31.035Z,29.87
2018-11-13T23:02:59.651Z,22.73
2018-11-13T23:05:28.214Z,25.53
2018-11-13T23:07:56.877Z,26.67
2018-11-13T23:10:25.444Z,20.43
2018-11-13T23:12:53.974Z,22.20
2018-11-13T23:15:22.577Z,21.80
2018-11-13T23:17:51.326Z,22.20
2018-11-13T23:20:20.925Z,22.50
2018-11-13T23:22:49.510Z,25.63
2018-11-13T23:25:19.110Z,25.13
2018-11-13T23:27:48.880Z,22.43
2018-11-13T23:30:20.170Z,29.40
2018-11-13T23:32:48.955Z,28.30
2018-11-13T23:35:17.857Z,26.80
2018-11-13T23:37:47.643Z,23.17
2018-11-13T23:40:17.538Z,23.77
2018-11-13T23:42:46.813Z,30.53
2018-11-13T23:45:16.386Z,25.17
2018-11-13T23:47:45.484Z,28.07
2018-11-13T23:50:14.180Z,19.50
2018-11-13T23:52:43.181Z,20.10
2018-11-13T23:55:12.935Z,27.20
2018-11-13T23:57:42.148Z,26.13
